createdAt,value
2022-11-20T00:01:33.184Z,20.60
2022-11-20T00:04:00.514Z,21.02
2022-11-20T00:06:29.775Z,21.95
2022-11-20T00:09:02.157Z,21.45
2022-11-20T00:11:32.445Z,23.90
2022-11-20T00:14:03.195Z,20.85
2022-11-20T00:16:34.476Z,21.67
2022-11-20T00:19:01.813Z,26.00
2022-11-20T00:21:31.015Z,24.92
2022-11-20T00:23:58.735Z,29.52
2022-11-20T00:26:29.441Z,23.20
2022-11-20T00:29:01.055Z,20.33
2022-11-20T00:31:29.980Z,22.52
2022-11-20T00:33:57.247Z,26.08
2022-11-20T00:36:27.981Z,23.33
2022-11-20T00:38:58.737Z,23.35
2022-11-20T00:41:29.333Z,25.30
2022-11-20T00:43:57.324Z,25.75
2022-11-20T00:46:29.651Z,29.52
2022-11-20T00:48:57.295Z,21.60
2022-11-20T00:51:27.696Z,19.70
2022-11-20T00:54:00.792Z,24.65
2022-11-20T00:56:27.933Z,27.33
2022-11-20T00:58:55.048Z,25.30
2022-11-20T01:01:26.654Z,29.25
2022-11-20T01:03:58.668Z,25.05
2022-11-20T01:06:37.351Z,23.63
2022-11-20T01:09:12.612Z,22.55
2022-11-20T01:11:44.907Z,26.15
2022-11-20T01:14:19.909Z,28.20
2022-11-20T01:16:51.687Z,24.55
2022-11-20T01:19:23.887Z,27.80
2022-11-20T01:21:55.518Z,31.63
2022-11-20T01:24:23.807Z,27.60
2022-11-20T01:26:52.632Z,31.55
2022-11-20T01:29:25.362Z,26.45
2022-11-20T01:31:53.955Z,25.90
2022-11-20T01:34:23.407Z,27.65
2022-11-20T01:36:52.560Z,28.50
2022-11-20T01:39:25.082Z,29.35
2022-11-20T01:42:14.452Z,30.60
2022-11-20T01:44:55.669Z,27.67
2022-11-20T01:47:44.337Z,34.42
2022-11-20T01:50:19.592Z,31.23
2022-11-20T01:53:02.226Z,24.98
2022-11-20T01:55:50.805Z,28.08
2022-11-20T01:58:25.124Z,25.40
2022-11-20T02:00:52.090Z,26.30
2022-11-20T02:03:21.345Z,29.65
2022-11-20T02:06:17.698Z,30.20
2022-11-20T02:08:44.564Z,22.08
2022-11-20T02:11:13.638Z,24.17
2022-11-20T02:13:44.180Z,31.02
2022-11-20T02:16:28.604Z,23.20
2022-11-20T02:19:02.106Z,27.13
2022-11-20T02:22:08.442Z,25.83
2022-11-20T02:24:35.592Z,26.60
2022-11-20T02:27:16.804Z,25.27
2022-11-20T02:29:56.406Z,30.60
2022-11-20T02:32:32.652Z,24.73
2022-11-20T02:35:30.981Z,25.55
2022-11-20T02:38:03.399Z,26.20
2022-11-20T02:40:30.404Z,31.63
2022-11-20T02:42:58.490Z,27.67
2022-11-20T02:45:26.517Z,23.15
2022-11-20T02:47:53.808Z,19.80
2022-11-20T02:50:21.450Z,22.98
2022-11-20T02:52:48.307Z,25.63
2022-11-20T02:55:15.311Z,23.45
2022-11-20T02:57:42.245Z,23.58
2022-11-20T03:00:10.368Z,24.77
2022-11-20T03:02:37.455Z,22.23
2022-11-20T03:05:04.735Z,24.05
2022-11-20T03:07:31.703Z,22.63
2022-11-20T03:09:58.600Z,24.02
2022-11-20T03:12:25.444Z,28.80
2022-11-20T03:14:53.397Z,19.90
2022-11-20T03:17:20.957Z,24.10
2022-11-20T03:19:47.878Z,19.70
2022-11-20T03:22:14.916Z,21.98
2022-11-20T03:24:41.820Z,24.60
2022-11-20T03:27:08.737Z,22.48
2022-11-20T03:29:36.867Z,19.88
2022-11-20T03:32:03.763Z,21.67
2022-11-20T03:34:30.655Z,22.25
2022-11-20T03:36:57.551Z,23.23
2022-11-20T03:39:24.595Z,20.83
2022-11-20T03:41:51.605Z,19.73
2022-11-20T03:44:22.068Z,16.38
2022-11-20T03:46:49.221Z,25.08
2022-11-20T03:49:16.067Z,19.60
2022-11-20T03:51:42.931Z,15.60
2022-11-20T03:54:10.367Z,15.98
2022-11-20T03:56:40.148Z,17.85
2022-11-20T03:59:07.580Z,19.30
2022-11-20T04:01:43.168Z,17.25
2022-11-20T04:04:13.761Z,16.95
2022-11-20T04:06:40.652Z,17.95
2022-11-20T04:09:07.988Z,19.30
2022-11-20T04:11:40.301Z,14.65
2022-11-20T04:14:15.572Z,18.10
2022-11-20T04:16:43.580Z,16.92
2022-11-20T04:19:15.965Z,13.73
2022-11-20T04:21:45.099Z,15.80
2022-11-20T04:24:12.397Z,13.77
2022-11-20T04:26:40.090Z,15.95
2022-11-20T04:29:07.176Z,18.42
2022-11-20T04:31:35.896Z,18.05
2022-11-20T04:34:07.190Z,11.63
2022-11-20T04:36:34.701Z,18.65
2022-11-20T04:39:06.710Z,14.00
2022-11-20T04:41:37.276Z,17.77
2022-11-20T04:44:06.843Z,15.38
2022-11-20T04:46:43.300Z,20.92
2022-11-20T04:49:12.649Z,17.92
2022-11-20T04:51:39.729Z,18.92
2022-11-20T04:54:06.625Z,16.13
2022-11-20T04:56:33.565Z,13.23
2022-11-20T04:59:04.185Z,16.30
2022-11-20T05:01:31.925Z,16.60
2022-11-20T05:03:58.847Z,14.70
2022-11-20T05:06:25.749Z,16.40
2022-11-20T05:08:52.754Z,15.32
2022-11-20T05:11:23.105Z,16.38
2022-11-20T05:13:52.148Z,13.20
2022-11-20T05:16:24.015Z,16.35
2022-11-20T05:18:54.163Z,15.55
2022-11-20T05:21:22.370Z,14.80
2022-11-20T05:23:49.735Z,18.63
2022-11-20T05:26:23.232Z,14.20
2022-11-20T05:28:52.249Z,15.48
2022-11-20T05:31:28.021Z,15.95
2022-11-20T05:33:58.016Z,15.20
2022-11-20T05:36:25.483Z,12.85
2022-11-20T05:38:55.457Z,17.25
2022-11-20T05:41:26.159Z,16.02
2022-11-20T05:43:53.346Z,13.30
2022-11-20T05:46:28.556Z,13.50
2022-11-20T05:48:57.691Z,19.15
2022-11-20T05:51:27.715Z,14.05
2022-11-20T05:53:56.692Z,14.18
2022-11-20T05:56:23.661Z,13.15
2022-11-20T05:58:51.034Z,18.33
2022-11-20T06:01:26.891Z,13.82
2022-11-20T06:03:55.267Z,16.40
2022-11-20T06:06:22.839Z,15.63
2022-11-20T06:08:50.460Z,14.13
2022-11-20T06:11:18.682Z,13.85
2022-11-20T06:13:47.482Z,15.02
2022-11-20T06:16:20.329Z,14.35
2022-11-20T06:18:48.185Z,18.08
2022-11-20T06:21:22.843Z,14.82
2022-11-20T06:23:53.161Z,12.75
2022-11-20T06:26:25.904Z,16.33
2022-11-20T06:28:54.480Z,16.83
2022-11-20T06:31:25.179Z,15.70
2022-11-20T06:33:53.608Z,13.13
2022-11-20T06:36:23.756Z,12.80
2022-11-20T06:38:51.699Z,11.52
2022-11-20T06:41:22.934Z,13.25
2022-11-20T06:43:50.464Z,19.00
2022-11-20T06:46:20.042Z,10.98
2022-11-20T06:48:49.147Z,11.35
2022-11-20T06:51:16.448Z,15.57
2022-11-20T06:53:43.507Z,14.30
2022-11-20T06:56:10.736Z,15.05
2022-11-20T06:58:38.217Z,11.88
2022-11-20T07:01:15.936Z,12.70
2022-11-20T07:03:43.920Z,13.95
2022-11-20T07:06:11.805Z,21.50
2022-11-20T07:08:39.019Z,12.52
2022-11-20T07:11:09.136Z,13.90
2022-11-20T07:13:36.248Z,11.98
2022-11-20T07:16:09.508Z,11.95
2022-11-20T07:18:37.664Z,14.38
2022-11-20T07:21:10.155Z,13.93
2022-11-20T07:23:38.280Z,12.45
2022-11-20T07:26:11.722Z,12.50
2022-11-20T07:28:39.598Z,15.98
2022-11-20T07:31:08.335Z,12.80
2022-11-20T07:33:35.257Z,14.43
2022-11-20T07:36:03.089Z,16.75
2022-11-20T07:38:30.282Z,12.88
2022-11-20T07:40:58.925Z,13.38
2022-11-20T07:43:26.149Z,14.07
2022-11-20T07:45:53.211Z,13.27
2022-11-20T07:48:20.135Z,15.95
2022-11-20T07:50:46.990Z,15.30
2022-11-20T07:53:14.762Z,10.23
2022-11-20T07:55:41.609Z,10.70
2022-11-20T07:58:08.470Z,13.35
2022-11-20T08:00:35.519Z,15.75
2022-11-20T08:03:05.528Z,16.40
2022-11-20T08:05:32.569Z,12.35
2022-11-20T08:07:59.846Z,16.08
2022-11-20T08:10:26.883Z,17.90
2022-11-20T08:13:13.114Z,15.50
2022-11-20T08:15:41.668Z,21.42
2022-11-20T08:18:30.598Z,15.80
2022-11-20T08:20:58.495Z,23.08
2022-11-20T08:23:25.363Z,15.03
2022-11-20T08:25:52.480Z,12.82
2022-11-20T08:28:21.740Z,13.40
2022-11-20T08:30:50.828Z,17.80
2022-11-20T08:33:19.349Z,15.33
2022-11-20T08:35:46.739Z,10.52
2022-11-20T08:38:13.873Z,17.05
2022-11-20T08:40:40.761Z,19.05
2022-11-20T08:43:07.638Z,14.43
2022-11-20T08:45:35.395Z,8.77
2022-11-20T08:48:06.295Z,20.17
2022-11-20T08:50:33.934Z,20.10
2022-11-20T08:53:07.866Z,43.70
2022-11-20T08:55:36.681Z,17.20
2022-11-20T08:58:10.055Z,18.70
2022-11-20T09:03:45.111Z,17.33
2022-11-20T09:06:12.248Z,14.32
2022-11-20T09:08:39.461Z,12.60
2022-11-20T09:11:07.654Z,12.30
2022-11-20T09:13:36.733Z,14.47
2022-11-20T09:16:09.717Z,13.95
2022-11-20T09:18:38.251Z,15.98
2022-11-20T09:21:13.891Z,15.45
2022-11-20T09:23:41.391Z,15.52
2022-11-20T09:26:15.388Z,15.97
2022-11-20T09:28:42.535Z,12.40
2022-11-20T09:31:37.500Z,20.57
2022-11-20T09:34:04.543Z,13.37
2022-11-20T09:36:31.508Z,13.10
2022-11-20T09:38:58.476Z,15.83
2022-11-20T09:42:08.420Z,17.57
2022-11-20T09:45:06.202Z,13.33
2022-11-20T09:48:01.385Z,15.40
2022-11-20T09:50:44.640Z,15.20
2022-11-20T09:53:45.463Z,8.60
2022-11-20T09:56:16.987Z,10.23
2022-11-20T09:59:02.912Z,13.37
2022-11-20T10:01:39.373Z,10.77
2022-11-20T10:04:21.489Z,7.87
2022-11-20T10:07:31.880Z,10.00
2022-11-20T10:10:00.148Z,7.20
2022-11-20T10:13:01.853Z,9.60
2022-11-20T10:15:56.073Z,9.90
2022-11-20T10:19:25.765Z,7.00
2022-11-20T10:22:23.490Z,6.97
2022-11-20T10:25:18.800Z,11.07
2022-11-20T10:28:40.769Z,9.57
2022-11-20T10:31:28.505Z,7.70
2022-11-20T10:34:12.197Z,7.93
2022-11-20T10:36:57.250Z,9.83
2022-11-20T10:39:51.034Z,9.73
2022-11-20T10:42:56.849Z,8.43
2022-11-20T10:45:26.824Z,7.10
2022-11-20T10:48:18.174Z,8.40
2022-11-20T10:51:31.369Z,8.80
2022-11-20T10:54:41.238Z,7.77
2022-11-20T10:57:40.110Z,12.10
2022-11-20T11:00:14.279Z,9.20
2022-11-20T11:02:53.909Z,7.77
2022-11-20T11:05:50.003Z,7.63
2022-11-20T11:08:20.636Z,7.70
2022-11-20T11:11:11.074Z,8.03
2022-11-20T11:13:37.947Z,7.67
2022-11-20T11:16:05.167Z,7.50
2022-11-20T11:18:35.790Z,9.87
2022-11-20T11:21:05.912Z,11.17
2022-11-20T11:23:43.610Z,9.30
2022-11-20T11:26:24.507Z,7.10
2022-11-20T11:29:05.634Z,9.37
2022-11-20T11:31:35.844Z,8.00
2022-11-20T11:34:14.891Z,8.90
2022-11-20T11:36:50.322Z,7.80
2022-11-20T11:39:22.365Z,6.97
2022-11-20T11:41:50.411Z,6.90
2022-11-20T11:44:47.739Z,8.87
2022-11-20T11:47:27.557Z,8.43
2022-11-20T11:50:12.254Z,6.20
2022-11-20T11:53:14.154Z,7.90
2022-11-20T11:56:03.691Z,7.50
2022-11-20T11:58:56.348Z,6.57
2022-11-20T12:01:50.094Z,7.53
2022-11-20T12:04:41.035Z,8.60
2022-11-20T12:07:46.478Z,2.00
2022-11-20T12:10:51.124Z,1.93
2022-11-20T12:13:38.516Z,2.95
2022-11-20T12:16:10.432Z,3.03
2022-11-20T12:18:37.392Z,4.55
2022-11-20T12:21:49.453Z,4.97
2022-11-20T12:24:41.960Z,5.35
2022-11-20T12:27:58.940Z,4.45
2022-11-20T12:30:26.324Z,2.95
2022-11-20T12:33:12.693Z,3.38
2022-11-20T12:36:38.248Z,5.33
2022-11-20T12:39:40.792Z,2.43
2022-11-20T12:43:14.792Z,3.35
2022-11-20T12:46:21.589Z,5.75
2022-11-20T12:49:30.340Z,5.80
2022-11-20T12:52:23.509Z,10.07
2022-11-20T12:55:37.132Z,4.73
2022-11-20T12:58:32.475Z,5.20
2022-11-20T13:01:43.638Z,5.93
2022-11-20T13:04:56.305Z,5.90
2022-11-20T13:07:26.960Z,7.07
2022-11-20T13:09:55.644Z,5.40
2022-11-20T13:12:47.474Z,8.43
2022-11-20T13:15:55.258Z,6.83
2022-11-20T13:18:22.917Z,7.10
2022-11-20T13:20:50.504Z,6.43
2022-11-20T13:23:29.144Z,12.27
2022-11-20T13:26:23.560Z,11.17
2022-11-20T13:29:17.200Z,10.37
2022-11-20T13:32:14.004Z,7.47
2022-11-20T13:34:59.793Z,15.17
2022-11-20T13:37:37.081Z,14.07
2022-11-20T13:40:24.139Z,11.30
2022-11-20T13:43:16.729Z,7.87
2022-11-20T13:46:05.811Z,7.50
2022-11-20T13:48:46.410Z,10.80
2022-11-20T13:51:36.574Z,9.83
2022-11-20T13:54:40.930Z,8.23
2022-11-20T13:58:00.877Z,6.23
2022-11-20T14:00:28.031Z,10.47
2022-11-20T14:03:06.901Z,8.87
2022-11-20T14:05:51.163Z,7.70
2022-11-20T14:08:58.334Z,8.90
2022-11-20T14:11:32.104Z,10.63
2022-11-20T14:14:26.058Z,13.63
2022-11-20T14:17:05.673Z,57.27
2022-11-20T14:19:34.091Z,18.50
2022-11-20T14:22:26.731Z,14.45
2022-11-20T14:25:27.699Z,14.90
2022-11-20T14:28:01.143Z,14.10
2022-11-20T14:30:47.427Z,18.97
2022-11-20T14:33:16.830Z,24.30
2022-11-20T14:35:52.169Z,10.03
2022-11-20T14:38:29.638Z,18.80
2022-11-20T14:41:19.010Z,39.10
2022-11-20T14:44:00.547Z,16.20
2022-11-20T14:46:30.783Z,11.03
2022-11-20T14:49:03.707Z,8.47
2022-11-20T14:51:44.106Z,10.33
2022-11-20T14:54:23.138Z,9.83
2022-11-20T14:57:05.207Z,20.93
2022-11-20T14:59:35.527Z,12.47
2022-11-20T15:02:11.351Z,15.47
2022-11-20T15:05:00.249Z,14.30
2022-11-20T15:07:39.000Z,15.83
2022-11-20T15:10:10.427Z,10.07
2022-11-20T15:12:51.395Z,11.27
2022-11-20T15:15:36.970Z,10.33
2022-11-20T15:18:05.327Z,14.80
2022-11-20T15:20:37.469Z,8.23
2022-11-20T15:23:16.820Z,14.00
2022-11-20T15:25:44.224Z,13.85
2022-11-20T15:28:44.843Z,12.65
2022-11-20T15:31:20.548Z,14.27
2022-11-20T15:33:48.148Z,11.32
2022-11-20T15:36:15.584Z,16.73
2022-11-20T15:38:42.707Z,12.45
2022-11-20T15:41:11.198Z,12.57
2022-11-20T15:43:38.439Z,13.75
2022-11-20T15:46:18.102Z,12.73
2022-11-20T15:48:57.272Z,9.55
2022-11-20T15:51:32.500Z,10.38
2022-11-20T15:54:00.064Z,11.43
2022-11-20T15:56:27.420Z,13.93
2022-11-20T15:58:54.378Z,16.20
2022-11-20T16:01:23.506Z,19.40
2022-11-20T16:03:50.521Z,18.10
2022-11-20T16:06:17.513Z,18.20
2022-11-20T16:08:44.672Z,13.90
2022-11-20T16:11:18.239Z,16.10
2022-11-20T16:14:04.250Z,17.23
2022-11-20T16:16:38.489Z,14.77
2022-11-20T16:19:06.119Z,23.30
2022-11-20T16:21:33.163Z,13.03
2022-11-20T16:24:05.959Z,10.83
2022-11-20T16:26:34.612Z,11.93
2022-11-20T16:29:04.876Z,13.30
2022-11-20T16:31:33.401Z,27.07
2022-11-20T16:34:11.227Z,23.17
2022-11-20T16:36:42.979Z,22.93
2022-11-20T16:39:10.701Z,17.13
2022-11-20T16:41:37.934Z,11.33
2022-11-20T16:44:11.484Z,10.77
2022-11-20T16:46:40.750Z,17.87
2022-11-20T16:49:14.136Z,18.97
2022-11-20T16:51:41.679Z,16.53
2022-11-20T16:54:10.733Z,17.43
2022-11-20T16:56:39.155Z,17.37
2022-11-20T16:59:07.405Z,17.93
2022-11-20T17:01:36.873Z,18.03
2022-11-20T17:04:07.397Z,11.63
2022-11-20T17:06:44.110Z,13.00
2022-11-20T17:09:12.059Z,10.30
2022-11-20T17:11:39.250Z,8.43
2022-11-20T17:14:07.356Z,10.10
2022-11-20T17:16:37.117Z,8.18
2022-11-20T17:19:05.289Z,7.63
2022-11-20T17:21:37.988Z,9.70
2022-11-20T17:24:12.055Z,7.95
2022-11-20T17:26:42.191Z,9.40
2022-11-20T17:29:14.831Z,8.70
2022-11-20T17:31:43.751Z,15.23
2022-11-20T17:34:15.834Z,10.67
2022-11-20T17:36:45.814Z,12.27
2022-11-20T17:39:15.904Z,6.95
2022-11-20T17:41:45.365Z,7.47
2022-11-20T17:44:13.194Z,8.15
2022-11-20T17:46:40.542Z,16.88
2022-11-20T17:49:07.538Z,9.93
2022-11-20T17:51:35.223Z,90.78
2022-11-20T17:54:07.430Z,9.18
2022-11-20T17:56:54.746Z,14.60
2022-11-20T17:59:22.331Z,8.68
2022-11-20T18:01:49.319Z,8.57
2022-11-20T18:04:16.812Z,9.13
2022-11-20T18:06:44.490Z,11.05
2022-11-20T18:09:12.168Z,17.40
2022-11-20T18:11:42.297Z,10.20
2022-11-20T18:14:36.214Z,10.32
2022-11-20T18:17:14.515Z,10.32
2022-11-20T18:20:07.187Z,11.00
2022-11-20T18:22:34.569Z,13.10
2022-11-20T18:25:03.551Z,8.57
2022-11-20T18:27:30.575Z,11.68
2022-11-20T18:29:57.519Z,8.70
2022-11-20T18:32:24.700Z,7.95
2022-11-20T18:34:51.637Z,7.38
2022-11-20T18:37:19.571Z,7.50
2022-11-20T18:39:46.637Z,38.70
2022-11-20T18:42:35.317Z,36.92
2022-11-20T18:45:05.014Z,54.33
2022-11-20T18:47:37.806Z,6.72
2022-11-20T18:50:08.553Z,5.75
2022-11-20T18:52:44.164Z,9.23
2022-11-20T18:55:12.779Z,15.93
2022-11-20T18:57:39.883Z,11.35
2022-11-20T19:00:09.743Z,7.78
2022-11-20T19:02:42.193Z,6.95
2022-11-20T19:05:13.696Z,6.28
2022-11-20T19:07:41.813Z,7.00
2022-11-20T19:10:09.498Z,7.32
2022-11-20T19:12:36.377Z,6.60
2022-11-20T19:15:04.846Z,8.25
2022-11-20T19:17:33.905Z,8.18
2022-11-20T19:20:00.814Z,9.23
2022-11-20T19:22:27.726Z,7.68
2022-11-20T19:24:54.622Z,7.97
2022-11-20T19:27:21.483Z,8.95
2022-11-20T19:29:48.449Z,7.75
2022-11-20T19:32:16.210Z,9.05
2022-11-20T19:34:43.563Z,8.80
2022-11-20T19:37:10.533Z,8.68
2022-11-20T19:39:37.626Z,10.35
2022-11-20T19:42:04.600Z,8.52
2022-11-20T19:44:32.846Z,8.63
2022-11-20T19:47:00.325Z,7.75
2022-11-20T19:49:27.191Z,7.18
2022-11-20T19:51:54.229Z,8.02
2022-11-20T19:54:21.065Z,8.10
2022-11-20T19:56:49.350Z,6.88
2022-11-20T19:59:16.969Z,6.65
2022-11-20T20:01:44.088Z,5.75
2022-11-20T20:04:11.077Z,6.25
2022-11-20T20:06:39.804Z,7.70
2022-11-20T20:09:12.480Z,5.43
2022-11-20T20:11:40.742Z,8.05
2022-11-20T20:14:14.389Z,8.53
2022-11-20T20:16:42.739Z,11.48
2022-11-20T20:19:15.134Z,7.03
2022-11-20T20:21:42.842Z,9.18
2022-11-20T20:24:11.843Z,8.70
2022-11-20T20:26:39.650Z,6.00
2022-11-20T20:29:06.634Z,6.75
2022-11-20T20:31:34.604Z,6.23
2022-11-20T20:34:05.068Z,5.57
2022-11-20T20:36:31.967Z,6.10
2022-11-20T20:38:59.863Z,8.10
2022-11-20T20:41:27.328Z,5.88
2022-11-20T20:44:13.523Z,13.77
2022-11-20T20:46:41.349Z,4.90
2022-11-20T20:49:08.920Z,5.40
2022-11-20T20:51:36.228Z,6.25
2022-11-20T20:54:03.743Z,7.80
2022-11-20T20:56:31.013Z,5.50
2022-11-20T20:58:58.000Z,6.53
2022-11-20T21:01:28.523Z,4.73
2022-11-20T21:03:57.135Z,5.53
2022-11-20T21:06:24.616Z,5.50
2022-11-20T21:08:51.603Z,6.50
2022-11-20T21:11:20.553Z,6.60
2022-11-20T21:13:49.438Z,7.35
2022-11-20T21:16:20.545Z,8.70
2022-11-20T21:18:48.105Z,5.83
2022-11-20T21:21:36.208Z,5.03
2022-11-20T21:24:03.940Z,5.65
2022-11-20T21:26:30.779Z,8.27
2022-11-20T21:28:58.193Z,8.50
2022-11-20T21:31:27.226Z,5.07
2022-11-20T21:33:57.145Z,5.60
2022-11-20T21:36:30.908Z,3.53
2022-11-20T21:38:59.529Z,5.57
2022-11-20T21:41:30.352Z,3.90
2022-11-20T21:46:47.021Z,3.17
2022-11-20T21:49:15.179Z,3.90
2022-11-20T21:51:42.128Z,3.70
2022-11-20T21:54:11.486Z,6.90
2022-11-20T21:56:38.639Z,3.78
2022-11-20T21:59:05.540Z,6.80
2022-11-20T22:01:32.450Z,2.60
2022-11-20T22:04:02.458Z,4.37
2022-11-20T22:06:36.447Z,2.60
2022-11-20T22:09:04.079Z,4.30
2022-11-20T22:11:31.259Z,2.00
2022-11-20T22:14:17.611Z,3.08
2022-11-20T22:16:44.508Z,4.17
2022-11-20T22:19:15.005Z,2.05
2022-11-20T22:21:41.959Z,3.13
2022-11-20T22:24:14.753Z,2.70
2022-11-20T22:26:41.682Z,3.50
2022-11-20T22:29:16.257Z,2.90
2022-11-20T22:31:43.650Z,3.37
2022-11-20T22:34:13.520Z,2.60
2022-11-20T22:36:41.757Z,2.90
2022-11-20T22:39:09.651Z,2.60
2022-11-20T22:41:36.669Z,2.40
2022-11-20T22:44:07.669Z,3.65
2022-11-20T22:46:40.009Z,2.93
2022-11-20T22:49:08.726Z,6.53
2022-11-20T22:51:40.942Z,3.03
2022-11-20T22:54:11.823Z,3.65
2022-11-20T22:56:38.917Z,3.73
2022-11-20T22:59:05.881Z,2.70
2022-11-20T23:01:37.366Z,2.63
2022-11-20T23:04:10.169Z,2.70
2022-11-20T23:06:38.050Z,2.60
2022-11-20T23:09:07.542Z,3.70
2022-11-20T23:11:35.861Z,2.90
2022-11-20T23:14:17.437Z,2.87
2022-11-20T23:16:44.471Z,2.53
2022-11-20T23:19:14.359Z,2.67
2022-11-20T23:21:43.167Z,7.20
2022-11-20T23:24:11.152Z,3.30
2022-11-20T23:26:40.482Z,2.43
2022-11-20T23:29:08.013Z,2.53
2022-11-20T23:31:35.943Z,2.77
2022-11-20T23:34:03.365Z,2.77
2022-11-20T23:36:30.686Z,2.47
2022-11-20T23:38:57.615Z,4.00
2022-11-20T23:41:24.610Z,3.07
2022-11-20T23:43:53.283Z,6.80
2022-11-20T23:46:20.347Z,4.67
2022-11-20T23:48:47.212Z,2.80
2022-11-20T23:51:14.738Z,2.70
2022-11-20T23:53:42.185Z,3.17
2022-11-20T23:56:12.090Z,3.23
2022-11-20T23:58:39.208Z,2.83
